Time;durP1;ratioP1;P1;durP2;ratioP2;P2;SDS_P1;SDS_P2;PMS_P1;PMS_P2;Temp;Humidity;BMP_temperature;BMP_pressure;BME280_temperature;BME280_humidity;BME280_pressure;Samples;Min_cycle;Max_cycle;Signal;HPM_P1;HPM_P2
2022/04/23 00:01:50;;;;;;;8.70;3.60;;;;;13.90;96296.00;;;;110626;1251;41170;-60
2022/04/23 00:04:19;;;;;;;12.00;4.00;;;;;13.90;96291.80;;;;110681;1251;41377;-60
2022/04/23 00:06:50;;;;;;;7.70;3.20;;;;;13.90;96286.60;;;;110727;1250;41743;-60
2022/04/23 00:09:20;;;;;;;8.20;3.20;;;;;13.90;96276.80;;;;110664;1252;41145;-60
2022/04/23 00:11:52;;;;;;;7.70;2.90;;;;;13.80;96276.00;;;;110486;1253;41143;-59
2022/04/23 00:14:22;;;;;;;7.40;2.90;;;;;13.70;96284.20;;;;110583;1253;42504;-60
2022/04/23 00:16:52;;;;;;;8.60;3.00;;;;;13.68;96292.40;;;;110587;1251;41956;-60
2022/04/23 00:19:21;;;;;;;9.00;2.90;;;;;13.60;96299.00;;;;110618;1251;41912;-59
2022/04/23 00:21:52;;;;;;;7.30;2.70;;;;;13.50;96301.80;;;;110617;1249;41470;-59
2022/04/23 00:24:22;;;;;;;;;;;;;13.40;96292.80;;;;110651;1251;41179;-60
2022/04/23 00:26:52;;;;;;;7.30;2.90;;;;;13.32;96290.20;;;;110546;1253;42077;-60
2022/04/23 00:29:21;;;;;;;10.10;2.80;;;;;13.30;96295.20;;;;110668;1251;41753;-60
2022/04/23 00:31:51;;;;;;;8.50;3.10;;;;;13.20;96302.00;;;;110542;1253;42181;-62
2022/04/23 00:34:22;;;;;;;8.30;3.10;;;;;13.10;96305.80;;;;110681;1251;41142;-61
2022/04/23 00:36:53;;;;;;;11.00;3.30;;;;;13.10;96299.40;;;;110720;1251;41269;-60
2022/04/23 00:39:22;;;;;;;9.20;3.50;;;;;13.00;96298.20;;;;110608;1251;41576;-60
2022/04/23 00:41:52;;;;;;;12.20;3.70;;;;;13.00;96298.00;;;;110637;1251;41182;-60
2022/04/23 00:44:22;;;;;;;15.00;4.80;;;;;12.90;96305.40;;;;110610;1251;41149;-60
2022/04/23 00:46:52;;;;;;;12.10;4.40;;;;;12.72;96307.80;;;;110641;1252;41155;-60
2022/04/23 00:49:22;;;;;;;11.10;3.70;;;;;12.50;96306.80;;;;110618;1251;41303;-60
2022/04/23 00:51:52;;;;;;;10.60;3.90;;;;;12.40;96304.20;;;;110752;1251;41145;-60
2022/04/23 00:54:22;;;;;;;9.80;3.10;;;;;12.30;96300.60;;;;110579;1251;41379;-60
2022/04/23 00:56:53;;;;;;;9.90;3.30;;;;;12.30;96305.80;;;;110545;1251;41198;-60
2022/04/23 00:59:23;;;;;;;10.00;3.90;;;;;12.20;96308.20;;;;110579;1251;41722;-60
2022/04/23 01:01:53;;;;;;;13.50;4.50;;;;;12.20;96304.20;;;;110548;1253;41213;-60
2022/04/23 01:04:22;;;;;;;10.50;4.20;;;;;12.20;96304.20;;;;110574;1253;41159;-60
2022/04/23 01:06:53;;;;;;;9.10;3.60;;;;;12.16;96303.20;;;;110615;1251;41267;-60
2022/04/23 01:09:23;;;;;;;;;;;;;12.20;96300.20;;;;110600;1252;42223;-60
2022/04/23 01:11:54;;;;;;;7.20;3.00;;;;;12.20;96299.00;;;;110534;1252;41145;-60
2022/04/23 01:14:23;;;;;;;;;;;;;12.20;96290.80;;;;110654;1251;41271;-60
2022/04/23 01:16:53;;;;;;;7.80;3.00;;;;;12.20;96288.40;;;;110573;1253;41150;-61
2022/04/23 01:19:25;;;;;;;10.60;3.40;;;;;12.20;96289.60;;;;110676;1251;41579;-60
2022/04/23 01:21:55;;;;;;;7.90;3.10;;;;;12.20;96289.40;;;;110750;1251;41167;-61
2022/04/23 01:24:26;;;;;;;13.00;3.80;;;;;12.10;96293.40;;;;110577;1253;41156;-60
2022/04/23 01:26:57;;;;;;;11.20;3.30;;;;;12.10;96293.80;;;;110721;1251;41149;-60
2022/04/23 01:29:28;;;;;;;8.30;3.00;;;;;12.00;96288.00;;;;110621;1251;41176;-60
2022/04/23 01:31:58;;;;;;;8.40;3.20;;;;;12.00;96295.80;;;;110489;1254;42088;-60
2022/04/23 01:34:27;;;;;;;9.60;3.50;;;;;11.90;96292.60;;;;110577;1251;42174;-60
2022/04/23 01:36:57;;;;;;;8.20;3.10;;;;;11.90;96292.20;;;;110716;1251;41378;-60
2022/04/23 01:39:28;;;;;;;9.60;2.70;;;;;11.90;96292.20;;;;110615;1251;41729;-60
2022/04/23 01:41:58;;;;;;;13.30;3.70;;;;;12.00;96295.00;;;;110641;1251;41783;-60
2022/04/23 01:44:29;;;;;;;11.20;3.40;;;;;12.00;96296.60;;;;110465;1253;41275;-60
2022/04/23 01:47:00;;;;;;;8.30;3.00;;;;;12.00;96293.60;;;;110612;1252;42442;-60
2022/04/23 01:49:30;;;;;;;10.70;3.00;;;;;12.00;96293.40;;;;110638;1251;41162;-60
2022/04/23 01:52:00;;;;;;;7.10;2.80;;;;;12.00;96297.80;;;;110607;1251;41665;-60
2022/04/23 01:54:32;;;;;;;14.00;3.80;;;;;12.10;96290.80;;;;110619;1253;41837;-60
2022/04/23 01:57:03;;;;;;;12.10;4.10;;;;;12.10;96289.20;;;;110535;1254;42005;-60
2022/04/23 01:59:33;;;;;;;10.80;3.50;;;;;12.10;96295.20;;;;110609;1251;41173;-60
2022/04/23 02:02:05;;;;;;;7.70;3.10;;;;;12.10;96291.20;;;;110609;1253;41745;-61
2022/04/23 02:04:35;;;;;;;11.40;3.50;;;;;12.10;96289.80;;;;110580;1251;41154;-60
2022/04/23 02:07:06;;;;;;;8.20;2.90;;;;;12.08;96288.40;;;;110635;1251;41144;-60
2022/04/23 02:09:37;;;;;;;8.40;3.30;;;;;12.00;96289.60;;;;110689;1251;41590;-61
2022/04/23 02:12:08;;;;;;;8.60;3.10;;;;;12.00;96284.40;;;;110634;1251;41178;-60
2022/04/23 02:14:38;;;;;;;10.00;3.40;;;;;12.00;96290.60;;;;110614;1251;42590;-60
2022/04/23 02:17:09;;;;;;;8.40;2.60;;;;;12.00;96292.60;;;;110830;1251;42391;-60
2022/04/23 02:19:39;;;;;;;7.40;2.80;;;;;11.96;96292.00;;;;110701;1252;41182;-60
2022/04/23 02:22:09;;;;;;;7.80;3.00;;;;;11.90;96293.40;;;;110720;1249;41258;-60
2022/04/23 02:24:40;;;;;;;9.70;3.40;;;;;11.94;96293.40;;;;110783;1251;41455;-61
2022/04/23 02:27:10;;;;;;;10.40;3.30;;;;;12.00;96295.40;;;;110844;1251;41140;-61
2022/04/23 02:29:42;;;;;;;8.30;3.10;;;;;12.00;96295.80;;;;110795;1250;41133;-60
2022/04/23 02:32:12;;;;;;;8.30;3.40;;;;;12.00;96295.40;;;;110786;1251;41588;-60
2022/04/23 02:34:41;;;;;;;10.00;3.20;;;;;12.00;96303.60;;;;110786;1251;41270;-60
2022/04/23 02:37:11;;;;;;;9.20;3.80;;;;;12.00;96298.80;;;;110771;1251;42378;-61
2022/04/23 02:39:41;;;;;;;9.50;3.50;;;;;12.00;96298.60;;;;110641;1251;41152;-61
2022/04/23 02:42:11;;;;;;;9.20;3.40;;;;;12.00;96297.20;;;;110594;1252;42271;-60
2022/04/23 02:44:40;;;;;;;9.50;2.90;;;;;12.00;96307.20;;;;110674;1251;42535;-60
2022/04/23 02:47:10;;;;;;;13.80;3.70;;;;;12.00;96313.20;;;;110750;1251;42204;-60
2022/04/23 02:49:40;;;;;;;7.70;3.20;;;;;12.00;96317.20;;;;110628;1252;41717;-61
2022/04/23 02:52:10;;;;;;;9.80;3.50;;;;;12.00;96321.20;;;;110566;1252;41566;-60
2022/04/23 02:54:40;;;;;;;9.30;4.00;;;;;12.00;96326.20;;;;110647;1251;41828;-61
2022/04/23 02:57:11;;;;;;;8.60;3.20;;;;;11.94;96327.60;;;;110724;1251;41986;-60
2022/04/23 02:59:41;;;;;;;8.90;2.90;;;;;12.00;96333.40;;;;110635;1251;42487;-61
2022/04/23 03:02:10;;;;;;;12.00;4.00;;;;;12.00;96334.40;;;;110592;1251;41205;-61
2022/04/23 03:04:42;;;;;;;10.50;3.30;;;;;12.00;96328.80;;;;110676;1251;41998;-61
2022/04/23 03:07:11;;;;;;;10.50;3.20;;;;;12.00;96316.80;;;;110776;1250;41993;-61
2022/04/23 03:09:42;;;;;;;10.60;3.40;;;;;12.00;96317.00;;;;110635;1250;41427;-61
2022/04/23 03:12:12;;;;;;;11.20;4.10;;;;;12.00;96317.00;;;;110641;1251;41308;-61
2022/04/23 03:14:43;;;;;;;10.50;3.70;;;;;11.96;96314.60;;;;110622;1251;41164;-60
2022/04/23 03:17:12;;;;;;;9.80;3.30;;;;;11.90;96312.60;;;;110626;1251;41272;-60
2022/04/23 03:19:43;;;;;;;10.40;3.20;;;;;11.90;96297.60;;;;110591;1251;41312;-60
2022/04/23 03:22:16;;;;;;;13.00;5.00;;;;;11.92;96302.80;;;;110610;1250;41133;-60
2022/04/23 03:24:45;;;;;;;13.30;4.40;;;;;12.00;96316.40;;;;110512;1253;41523;-63
2022/04/23 03:27:15;;;;;;;15.40;4.40;;;;;11.92;96319.80;;;;110649;1251;41160;-62
2022/04/23 03:29:45;;;;;;;10.10;3.90;;;;;11.90;96316.80;;;;110699;1251;41264;-60
2022/04/23 03:32:14;;;;;;;13.10;3.60;;;;;11.90;96306.40;;;;110655;1251;41146;-61
2022/04/23 03:34:44;;;;;;;12.80;4.00;;;;;11.90;96296.20;;;;110571;1251;41141;-61
2022/04/23 03:37:13;;;;;;;8.40;3.00;;;;;11.86;96297.00;;;;110550;1252;41159;-59
2022/04/23 03:39:46;;;;;;;12.50;3.70;;;;;11.80;96296.20;;;;110563;1251;41980;-59
2022/04/23 03:42:16;;;;;;;9.50;3.30;;;;;11.90;96299.20;;;;110612;1251;42573;-60
2022/04/23 03:44:45;;;;;;;8.10;3.20;;;;;11.90;96290.80;;;;110667;1251;41131;-60
2022/04/23 03:47:16;;;;;;;9.20;2.90;;;;;11.90;96283.40;;;;110646;1251;41141;-60
2022/04/23 03:49:46;;;;;;;6.50;2.60;;;;;11.90;96286.00;;;;110714;1251;41568;-60
2022/04/23 03:52:15;;;;;;;6.30;2.60;;;;;12.00;96283.60;;;;110789;1249;41889;-60
2022/04/23 03:54:47;;;;;;;9.10;3.00;;;;;12.00;96272.40;;;;110713;1249;41887;-60
2022/04/23 03:57:16;;;;;;;;;;;;;12.00;96278.80;;;;110587;1250;42289;-60
2022/04/23 03:59:46;;;;;;;11.20;3.90;;;;;12.00;96279.40;;;;110756;1250;41127;-60
2022/04/23 04:02:16;;;;;;;11.20;4.50;;;;;12.00;96278.40;;;;110622;1251;41144;-60
2022/04/23 04:04:47;;;;;;;16.30;5.00;;;;;12.00;96281.60;;;;110581;1250;41842;-60
2022/04/23 04:07:19;;;;;;;12.30;4.70;;;;;12.00;96282.40;;;;110666;1251;41119;-60
2022/04/23 04:09:48;;;;;;;13.60;4.60;;;;;12.00;96283.60;;;;110768;1251;41382;-60
2022/04/23 04:12:17;;;;;;;11.10;4.20;;;;;12.00;96279.00;;;;110812;1250;41162;-59
2022/04/23 04:14:47;;;;;;;9.20;3.40;;;;;12.00;96279.00;;;;110733;1251;41590;-59
2022/04/23 04:17:16;;;;;;;8.60;3.20;;;;;12.00;96288.00;;;;110823;1250;41155;-59
2022/04/23 04:19:46;;;;;;;8.40;3.60;;;;;12.00;96282.40;;;;110866;1250;41163;-59
2022/04/23 04:22:15;;;;;;;8.40;3.60;;;;;12.02;96279.00;;;;110591;1251;41351;-59
2022/04/23 04:24:44;;;;;;;9.20;3.30;;;;;12.10;96278.40;;;;110763;1251;41274;-59
2022/04/23 04:27:14;;;;;;;11.90;3.80;;;;;12.10;96278.80;;;;110648;1251;41179;-59
2022/04/23 04:29:44;;;;;;;10.80;3.70;;;;;12.20;96282.00;;;;110837;1250;41134;-59
2022/04/23 04:32:13;;;;;;;9.20;3.60;;;;;12.20;96280.80;;;;110717;1250;41605;-60
2022/04/23 04:34:43;;;;;;;12.10;2.90;;;;;12.30;96278.80;;;;110790;1250;41280;-60
2022/04/23 04:37:14;;;;;;;8.20;2.90;;;;;12.40;96287.20;;;;110647;1252;41246;-61
2022/04/23 04:39:43;;;;;;;9.40;3.30;;;;;12.42;96292.80;;;;110685;1251;41145;-61
2022/04/23 04:42:14;;;;;;;9.70;3.60;;;;;12.50;96299.80;;;;110531;1251;41163;-60
2022/04/23 04:44:43;;;;;;;6.90;3.00;;;;;12.50;96304.60;;;;110629;1250;41148;-60
2022/04/23 04:47:13;;;;;;;7.60;2.90;;;;;12.50;96307.40;;;;110531;1251;41185;-60
2022/04/23 04:49:42;;;;;;;6.80;2.70;;;;;12.60;96307.40;;;;110514;1252;42488;-59
2022/04/23 04:52:12;;;;;;;7.30;2.70;;;;;12.60;96302.80;;;;110684;1251;42629;-60
2022/04/23 04:54:41;;;;;;;10.00;3.30;;;;;12.60;96298.20;;;;110609;1251;41160;-59
2022/04/23 04:57:11;;;;;;;6.90;2.60;;;;;12.70;96308.80;;;;110587;1251;41954;-60
2022/04/23 04:59:40;;;;;;;6.80;2.90;;;;;12.70;96314.40;;;;110558;1252;41380;-59
2022/04/23 05:02:10;;;;;;;9.60;3.30;;;;;12.70;96313.00;;;;110695;1249;42150;-59
2022/04/23 05:04:39;;;;;;;8.40;3.40;;;;;12.70;96317.40;;;;110754;1249;41459;-59
2022/04/23 05:07:09;;;;;;;6.50;2.50;;;;;12.60;96319.20;;;;110632;1251;41137;-60
2022/04/23 05:09:38;;;;;;;8.50;3.40;;;;;12.60;96318.20;;;;110618;1249;41172;-61
2022/04/23 05:12:09;;;;;;;6.10;2.20;;;;;12.54;96317.40;;;;110611;1250;41582;-60
2022/04/23 05:14:38;;;;;;;9.00;2.60;;;;;12.58;96317.80;;;;110879;1250;41130;-61
2022/04/23 05:17:10;;;;;;;9.70;3.80;;;;;12.58;96320.20;;;;110800;1251;41673;-61
2022/04/23 05:19:39;;;;;;;13.10;4.10;;;;;12.60;96319.80;;;;110797;1252;41330;-60
2022/04/23 05:22:09;;;;;;;9.50;3.50;;;;;12.60;96314.20;;;;110728;1251;41980;-60
2022/04/23 05:24:38;;;;;;;8.90;3.10;;;;;12.60;96313.20;;;;110709;1252;41144;-60
2022/04/23 05:27:09;;;;;;;7.20;2.90;;;;;12.60;96310.00;;;;110640;1251;41152;-60
2022/04/23 05:29:38;;;;;;;8.70;2.50;;;;;12.60;96312.00;;;;110819;1251;41174;-61
2022/04/23 05:32:08;;;;;;;7.10;2.60;;;;;12.66;96310.80;;;;110819;1251;41134;-62
2022/04/23 05:34:38;;;;;;;5.40;2.20;;;;;12.70;96313.40;;;;110745;1251;41979;-60
2022/04/23 05:37:08;;;;;;;5.90;2.30;;;;;12.70;96313.80;;;;110720;1250;42734;-60
2022/04/23 05:39:37;;;;;;;7.80;2.80;;;;;12.70;96314.20;;;;110613;1251;41922;-61
2022/04/23 05:42:06;;;;;;;6.70;2.60;;;;;12.70;96318.80;;;;110792;1249;41176;-60
2022/04/23 05:44:35;;;;;;;9.40;3.00;;;;;12.70;96324.80;;;;110665;1251;41136;-59
2022/04/23 05:47:05;;;;;;;6.70;2.50;;;;;12.70;96328.20;;;;110835;1251;41141;-59
2022/04/23 05:49:39;;;;;;;6.40;2.50;;;;;12.60;96327.20;;;;110607;1251;41259;-59
2022/04/23 05:52:22;;;;;;;7.50;2.80;;;;;12.60;96329.00;;;;110637;1251;41606;-59
2022/04/23 05:54:52;;;;;;;7.00;2.50;;;;;12.60;96326.00;;;;110684;1251;41154;-60
2022/04/23 05:57:25;;;;;;;7.20;2.40;;;;;12.60;96321.60;;;;110482;1252;41152;-60
2022/04/23 05:59:56;;;;;;;6.20;2.30;;;;;12.60;96325.20;;;;110387;1252;41378;-59
2022/04/23 06:02:26;;;;;;;6.20;2.60;;;;;12.50;96328.60;;;;110750;1249;41301;-62
2022/04/23 06:04:56;;;;;;;5.80;2.40;;;;;12.50;96335.40;;;;110576;1251;41155;-60
2022/04/23 06:07:31;;;;;;;5.50;2.00;;;;;12.50;96333.80;;;;110576;1252;41909;-60
2022/04/23 06:10:01;;;;;;;3.90;1.90;;;;;12.50;96338.00;;;;110780;1251;41137;-61
2022/04/23 06:12:31;;;;;;;4.00;1.90;;;;;12.40;96343.80;;;;110666;1249;42084;-60
2022/04/23 06:15:01;;;;;;;3.90;1.70;;;;;12.40;96343.80;;;;110596;1251;41455;-60
2022/04/23 06:17:30;;;;;;;3.70;1.80;;;;;12.40;96346.00;;;;110847;1249;41150;-60
2022/04/23 06:20:02;;;;;;;3.70;1.70;;;;;12.40;96349.60;;;;110513;1251;41278;-60
2022/04/23 06:22:32;;;;;;;4.60;1.90;;;;;12.40;96355.80;;;;110543;1252;42081;-60
2022/04/23 06:25:01;;;;;;;3.00;1.60;;;;;12.40;96354.00;;;;110612;1251;41169;-59
2022/04/23 06:27:31;;;;;;;5.00;1.80;;;;;12.40;96356.40;;;;110106;1250;606827;-60
2022/04/23 06:30:00;;;;;;;4.80;1.80;;;;;12.44;96358.40;;;;110802;1250;41200;-61
2022/04/23 06:32:29;;;;;;;5.40;1.80;;;;;12.50;96365.20;;;;110610;1253;42626;-61
2022/04/23 06:34:58;;;;;;;4.00;1.50;;;;;12.50;96372.60;;;;110610;1250;41282;-61
2022/04/23 06:37:28;;;;;;;14.50;7.00;;;;;12.50;96375.00;;;;110721;1250;41187;-60
2022/04/23 06:39:57;;;;;;;5.50;2.30;;;;;12.50;96380.20;;;;110677;1250;42384;-60
2022/04/23 06:42:26;;;;;;;8.20;3.00;;;;;12.46;96378.60;;;;110752;1250;41255;-61
2022/04/23 06:44:55;;;;;;;3.10;1.40;;;;;12.46;96385.60;;;;110714;1250;41261;-60
2022/04/23 06:47:24;;;;;;;2.90;1.40;;;;;12.40;96384.80;;;;110775;1250;41193;-60
2022/04/23 06:49:57;;;;;;;3.70;1.50;;;;;12.40;96386.20;;;;110813;1250;41128;-60
2022/04/23 06:52:27;;;;;;;4.30;1.60;;;;;12.40;96384.00;;;;110649;1250;41607;-58
2022/04/23 06:54:56;;;;;;;2.40;1.50;;;;;12.40;96386.80;;;;110727;1249;42057;-60
2022/04/23 06:57:25;;;;;;;2.20;1.30;;;;;12.40;96392.60;;;;110817;1251;41468;-60
2022/04/23 06:59:55;;;;;;;2.50;1.50;;;;;12.40;96386.60;;;;110808;1251;41425;-60
2022/04/23 07:02:24;;;;;;;3.70;1.50;;;;;12.40;96392.00;;;;110709;1251;41684;-60
2022/04/23 07:04:53;;;;;;;3.70;1.90;;;;;12.40;96393.80;;;;110781;1250;41629;-61
2022/04/23 07:07:23;;;;;;;3.60;1.70;;;;;12.42;96402.40;;;;110684;1250;41209;-61
2022/04/23 07:09:52;;;;;;;3.90;1.50;;;;;12.50;96401.00;;;;110804;1250;41134;-61
2022/04/23 07:12:21;;;;;;;2.80;1.50;;;;;12.50;96403.00;;;;110766;1251;41154;-59
2022/04/23 07:14:51;;;;;;;3.30;1.70;;;;;12.50;96402.40;;;;110743;1250;41931;-60
2022/04/23 07:17:24;;;;;;;2.00;1.40;;;;;12.60;96401.60;;;;110561;1253;41736;-60
2022/04/23 07:19:53;;;;;;;1.90;1.40;;;;;12.70;96402.00;;;;110744;1250;42219;-61
2022/04/23 07:22:22;;;;;;;1.50;1.20;;;;;12.70;96407.80;;;;110806;1250;41385;-59
2022/04/23 07:24:51;;;;;;;2.90;1.50;;;;;12.70;96408.60;;;;110709;1251;41730;-61
2022/04/23 07:27:20;;;;;;;3.40;1.50;;;;;12.60;96411.00;;;;110796;1251;41917;-59
2022/04/23 07:29:50;;;;;;;3.30;1.70;;;;;12.60;96416.20;;;;110717;1249;41150;-60
2022/04/23 07:32:22;;;;;;;2.70;1.50;;;;;12.58;96414.20;;;;110656;1252;41765;-60
2022/04/23 07:37:39;;;;;;;1.60;1.50;;;;;12.50;96421.00;;;;110850;1249;41252;-61
2022/04/23 07:40:12;;;;;;;2.00;1.40;;;;;12.50;96423.80;;;;110675;1251;42451;-61
2022/04/23 07:42:42;;;;;;;3.00;1.40;;;;;12.50;96429.60;;;;110534;1252;41213;-60
2022/04/23 07:45:11;;;;;;;4.80;1.90;;;;;12.50;96427.40;;;;110818;1250;41180;-58
2022/04/23 07:47:40;;;;;;;4.90;1.90;;;;;12.50;96430.60;;;;110622;1251;41699;-60
2022/04/23 07:50:09;;;;;;;3.20;1.70;;;;;12.50;96435.20;;;;110681;1250;41603;-61
2022/04/23 07:52:39;;;;;;;3.60;1.50;;;;;12.50;96433.40;;;;110668;1250;42134;-59
2022/04/23 07:55:08;;;;;;;3.60;1.70;;;;;12.50;96435.20;;;;110824;1249;40848;-61
2022/04/23 07:57:38;;;;;;;3.00;1.70;;;;;12.50;96441.80;;;;110715;1250;41177;-60
2022/04/23 08:00:08;;;;;;;4.80;2.00;;;;;12.50;96441.20;;;;110660;1251;41208;-61
2022/04/23 08:02:38;;;;;;;4.80;2.00;;;;;12.50;96446.20;;;;110686;1249;41451;-59
2022/04/23 08:05:12;;;;;;;2.60;1.70;;;;;12.50;96441.40;;;;110783;1251;41282;-59
2022/04/23 08:07:43;;;;;;;3.80;2.00;;;;;12.50;96445.40;;;;110628;1249;41823;-61
2022/04/23 08:10:12;;;;;;;4.70;1.90;;;;;12.50;96446.40;;;;110812;1250;41255;-60
2022/04/23 08:12:41;;;;;;;3.20;1.80;;;;;12.60;96447.80;;;;110752;1249;41170;-60
2022/04/23 08:15:11;;;;;;;3.90;1.70;;;;;12.60;96451.40;;;;110711;1251;41348;-61
2022/04/23 08:17:41;;;;;;;;;;;;;12.60;96446.40;;;;110727;1250;41712;-59
2022/04/23 08:20:11;;;;;;;3.20;1.70;;;;;12.64;96453.80;;;;110715;1249;41608;-59
2022/04/23 08:22:40;;;;;;;6.90;2.00;;;;;12.70;96459.00;;;;110579;1250;41170;-61
2022/04/23 08:25:11;;;;;;;2.30;1.40;;;;;12.72;96459.40;;;;110599;1253;41645;-59
2022/04/23 08:27:54;;;;;;;2.90;1.70;;;;;12.80;96463.80;;;;110594;1252;41267;-61
2022/04/23 08:30:35;;;;;;;2.80;1.60;;;;;12.90;96458.60;;;;110858;1249;42429;-60
2022/04/23 08:33:06;;;;;;;3.30;1.60;;;;;12.90;96457.80;;;;110676;1250;41629;-60
2022/04/23 08:35:36;;;;;;;3.50;1.70;;;;;13.00;96458.20;;;;110708;1250;41130;-60
2022/04/23 08:38:07;;;;;;;3.20;1.60;;;;;13.00;96462.00;;;;110734;1249;41143;-59
2022/04/23 08:40:44;;;;;;;3.20;1.70;;;;;13.00;96463.80;;;;110763;1249;41143;-61
2022/04/23 08:43:13;;;;;;;3.70;1.80;;;;;13.10;96463.60;;;;110710;1249;42052;-60
2022/04/23 08:45:42;;;;;;;5.10;1.90;;;;;13.10;96462.60;;;;110564;1251;41138;-60
2022/04/23 08:48:14;;;;;;;3.00;1.50;;;;;13.10;96468.40;;;;110783;1250;41157;-61
2022/04/23 08:50:43;;;;;;;4.40;1.80;;;;;13.10;96472.80;;;;110718;1251;41340;-60
2022/04/23 08:53:23;;;;;;;2.40;1.50;;;;;13.20;96472.00;;;;110544;1251;41137;-61
2022/04/23 08:55:59;;;;;;;4.90;1.80;;;;;13.20;96479.20;;;;110693;1250;41246;-61
2022/04/23 08:58:29;;;;;;;4.60;1.80;;;;;13.22;96471.00;;;;110652;1251;41721;-62
2022/04/23 09:01:01;;;;;;;3.90;1.70;;;;;13.30;96472.20;;;;110750;1250;41269;-60
2022/04/23 09:03:33;;;;;;;3.40;1.70;;;;;13.50;96473.40;;;;110836;1250;41469;-61
2022/04/23 09:06:03;;;;;;;;;;;;;13.60;96471.00;;;;110611;1251;42236;-61
2022/04/23 09:08:32;;;;;;;5.30;1.80;;;;;13.70;96475.40;;;;110631;1250;42877;-61
2022/04/23 09:11:01;;;;;;;3.40;1.80;;;;;13.80;96472.40;;;;110715;1251;41357;-60
2022/04/23 09:13:31;;;;;;;2.70;1.60;;;;;13.84;96474.80;;;;110734;1250;41777;-61
2022/04/23 09:24:49;;;;;;;2.80;1.60;;;;;14.20;96484.20;;;;110684;1251;41152;-61
2022/04/23 09:27:19;;;;;;;4.90;2.00;;;;;14.30;96486.60;;;;110670;1249;41206;-61
2022/04/23 09:30:01;;;;;;;3.80;1.80;;;;;14.30;96489.20;;;;110670;1250;41219;-60
2022/04/23 09:32:32;;;;;;;3.70;1.70;;;;;14.40;96490.20;;;;110710;1251;41927;-60
2022/04/23 09:35:09;;;;;;;3.10;1.70;;;;;14.40;96494.20;;;;110519;1252;41271;-60
2022/04/23 09:40:29;;;;;;;2.80;1.60;;;;;14.40;96496.00;;;;110737;1251;41949;-61
2022/04/23 09:43:07;;;;;;;3.50;1.60;;;;;14.40;96501.40;;;;110683;1251;41180;-60
2022/04/23 09:45:42;;;;;;;4.20;1.80;;;;;14.40;96499.80;;;;110607;1253;42140;-59
2022/04/23 09:48:11;;;;;;;4.10;1.90;;;;;14.50;96502.40;;;;110656;1251;41655;-60
2022/04/23 09:50:42;;;;;;;4.00;1.90;;;;;14.58;96500.40;;;;110629;1251;41571;-65
2022/04/23 09:53:16;;;;;;;5.50;2.30;;;;;14.70;96500.40;;;;110544;1253;41623;-61
2022/04/23 09:55:49;;;;;;;5.80;2.10;;;;;14.80;96501.00;;;;110361;1252;41832;-61
2022/04/23 09:58:21;;;;;;;3.60;1.80;;;;;14.90;96500.60;;;;110642;1251;41789;-60
2022/04/23 10:00:50;;;;;;;5.00;2.10;;;;;15.00;96506.80;;;;110782;1250;41588;-60
2022/04/23 10:03:20;;;;;;;3.10;1.60;;;;;15.10;96501.40;;;;110431;1253;41152;-60
2022/04/23 10:05:50;;;;;;;4.80;2.00;;;;;15.48;96496.60;;;;110373;1252;41185;-60
2022/04/23 10:08:26;;;;;;;6.60;2.10;;;;;15.86;96493.00;;;;110503;1252;41271;-59
2022/04/23 10:11:11;;;;;;;4.70;2.10;;;;;16.22;96494.40;;;;110613;1252;41178;-59
2022/04/23 10:13:44;;;;;;;4.00;2.00;;;;;16.50;96489.60;;;;110593;1252;41159;-59
2022/04/23 10:16:13;;;;;;;4.00;1.80;;;;;16.60;96492.60;;;;110557;1253;42008;-61
2022/04/23 10:18:43;;;;;;;5.00;1.80;;;;;16.80;96491.20;;;;110577;1252;41821;-61
2022/04/23 10:21:20;;;;;;;5.20;2.00;;;;;17.04;96491.00;;;;110598;1252;41252;-60
2022/04/23 10:23:55;;;;;;;4.90;2.10;;;;;17.12;96485.00;;;;110335;1253;41447;-60
2022/04/23 10:26:49;;;;;;;3.50;1.70;;;;;17.10;96485.60;;;;110662;1251;41469;-60
2022/04/23 10:29:21;;;;;;;6.40;2.20;;;;;17.10;96487.60;;;;110595;1250;41270;-60
2022/04/23 10:32:13;;;;;;;6.40;1.90;;;;;17.00;96487.60;;;;110689;1251;41262;-59
2022/04/23 10:34:43;;;;;;;3.70;1.70;;;;;16.88;96489.00;;;;110703;1251;41264;-60
2022/04/23 10:37:40;;;;;;;4.50;1.90;;;;;16.80;96482.20;;;;110672;1251;41136;-60
2022/04/23 10:40:13;;;;;;;4.80;2.00;;;;;16.70;96481.80;;;;110606;1252;42056;-60
2022/04/23 10:43:19;;;;;;;3.80;1.80;;;;;16.70;96487.40;;;;110707;1251;41204;-59
2022/04/23 10:45:48;;;;;;;4.20;1.80;;;;;16.60;96487.80;;;;110682;1251;41335;-59
2022/04/23 10:48:24;;;;;;;4.60;2.00;;;;;16.70;96490.40;;;;110670;1250;41658;-59
2022/04/23 10:51:20;;;;;;;3.50;1.90;;;;;16.60;96495.60;;;;110643;1250;41178;-61
2022/04/23 10:53:50;;;;;;;5.10;2.00;;;;;16.50;96497.60;;;;110679;1251;41713;-60
2022/04/23 10:56:21;;;;;;;3.90;1.80;;;;;16.44;96497.60;;;;110651;1250;41154;-61
2022/04/23 10:58:51;;;;;;;2.90;1.50;;;;;16.42;96495.20;;;;110667;1251;41945;-61
2022/04/23 11:01:25;;;;;;;3.90;1.70;;;;;16.40;96494.80;;;;110532;1251;41280;-61
2022/04/23 11:04:07;;;;;;;2.60;1.50;;;;;16.60;96491.80;;;;110674;1250;41264;-61
2022/04/23 11:12:22;;;;;;;3.20;1.50;;;;;21.22;96465.60;;;;110577;1251;41492;-60
2022/04/23 11:14:53;;;;;;;2.60;1.40;;;;;23.86;96459.20;;;;110665;1250;41612;-60
2022/04/23 11:17:44;;;;;;;4.80;1.50;;;;;26.38;96457.60;;;;110601;1251;41238;-60
2022/04/23 11:20:14;;;;;;;2.40;1.30;;;;;28.28;96464.80;;;;110596;1252;41276;-60
2022/04/23 11:22:43;;;;;;;4.00;1.50;;;;;28.06;96457.20;;;;110672;1249;41136;-61
2022/04/23 11:25:14;;;;;;;4.00;1.60;;;;;27.08;96459.80;;;;110682;1251;41606;-60
2022/04/23 11:27:48;;;;;;;4.20;1.50;;;;;25.88;96468.20;;;;110679;1250;41192;-60
2022/04/23 11:30:28;;;;;;;3.30;1.70;;;;;24.62;96469.40;;;;110684;1252;42819;-60
2022/04/23 11:33:10;;;;;;;4.00;1.50;;;;;23.46;96473.20;;;;110679;1251;41580;-60
2022/04/23 11:35:42;;;;;;;2.40;1.40;;;;;22.52;96471.40;;;;110677;1251;41315;-60
2022/04/23 11:38:19;;;;;;;4.90;1.60;;;;;21.72;96483.00;;;;110619;1251;41940;-61
2022/04/23 11:40:48;;;;;;;3.50;1.60;;;;;21.18;96487.20;;;;110583;1251;43025;-61
2022/04/23 11:43:35;;;;;;;4.00;1.60;;;;;20.70;96488.60;;;;110731;1249;41196;-59
2022/04/23 11:46:08;;;;;;;3.00;1.50;;;;;20.36;96489.00;;;;110860;1248;41143;-61
2022/04/23 11:48:41;;;;;;;3.70;1.70;;;;;20.20;96483.20;;;;110900;1250;40845;-62
2022/04/23 11:51:12;;;;;;;4.40;1.70;;;;;20.76;96473.00;;;;110848;1249;41785;-60
2022/04/23 11:53:53;;;;;;;3.00;1.60;;;;;21.98;96451.80;;;;110703;1251;41201;-60
2022/04/23 11:56:28;;;;;;;3.30;1.40;;;;;24.30;96440.60;;;;110543;1252;41172;-60
2022/04/23 11:59:09;;;;;;;3.40;1.50;;;;;26.58;96441.40;;;;110556;1252;41936;-63
2022/04/23 12:01:48;;;;;;;4.10;1.60;;;;;28.08;96439.20;;;;110833;1249;41362;-61
2022/04/23 12:04:19;;;;;;;1.60;1.10;;;;;27.94;96445.80;;;;110409;1252;41185;-61
2022/04/23 12:06:50;;;;;;;4.90;1.40;;;;;27.22;96448.40;;;;110512;1254;41721;-61
2022/04/23 12:09:20;;;;;;;1.70;1.20;;;;;26.44;96446.20;;;;110709;1252;42398;-61
2022/04/23 12:12:02;;;;;;;2.30;1.30;;;;;25.54;96452.20;;;;110801;1252;41614;-59
2022/04/23 12:14:34;;;;;;;2.30;1.30;;;;;24.62;96454.60;;;;110574;1251;42435;-60
2022/04/23 12:17:07;;;;;;;2.70;1.30;;;;;23.92;96459.20;;;;110607;1252;41263;-60
2022/04/23 12:19:37;;;;;;;1.60;1.10;;;;;23.36;96461.80;;;;110557;1250;41411;-60
2022/04/23 12:22:07;;;;;;;2.20;1.20;;;;;22.96;96466.20;;;;110707;1251;41149;-63
2022/04/23 12:24:39;;;;;;;3.30;1.30;;;;;22.70;96467.60;;;;110610;1252;41862;-60
2022/04/23 12:27:09;;;;;;;2.40;1.30;;;;;22.40;96467.80;;;;110674;1251;41498;-60
2022/04/23 12:41:13;;;;;;;3.10;1.40;;;;;20.66;96481.60;;;;110599;1251;41152;-59
2022/04/23 12:43:43;;;;;;;3.10;1.50;;;;;20.40;96478.60;;;;110794;1251;41149;-60
2022/04/23 12:46:17;;;;;;;2.60;1.40;;;;;20.18;96483.20;;;;110802;1249;40830;-61
2022/04/23 12:48:56;;;;;;;2.80;1.50;;;;;20.00;96482.00;;;;110731;1251;41636;-61
2022/04/23 12:51:27;;;;;;;2.20;1.30;;;;;19.70;96482.40;;;;110698;1251;41167;-59
2022/04/23 12:54:01;;;;;;;4.10;1.50;;;;;19.50;96491.60;;;;110686;1251;41261;-60
2022/04/23 12:56:54;;;;;;;5.20;1.70;;;;;19.34;96495.80;;;;110647;1252;40963;-61
2022/04/23 12:59:24;;;;;;;5.80;1.50;;;;;19.12;96500.20;;;;110547;1252;41520;-60
2022/04/23 13:01:55;;;;;;;4.20;1.70;;;;;18.76;96510.00;;;;110578;1253;41222;-60